Airfield :
LOGIN :

Register | Disclaimer

   EN    FR    IT 

 










Legend :    VFR   Marginal VFR   IFR   Intensive IFR   Very Intensive IFR
Visi :
Ceiling :
>= 8 km
>= 3000ft
5 to 8 km
1000 to 3000 ft
1500m to 5 km
500 to 1000 ft
800 to 1500m
200 to 500 ft
< 800m
< 200 ft
Symbols :   Thunderstorms  Fog  Heavy snow  Heavy precipitations  Wind > 20 kt
SIGMETs :     Misc.  Thunderstorms  Icing  Turbulence  Mountain Waves  Volcanic Ashes






- Airport Elevation : 779 ft
- IATA code : CMF


LFLB - Chambery / Aix-Les-Bains

CURRENT METAR :
  • 270200Z AUTO 10001KT 0500 0450 R18/3000U R36/0500N FG FEW005 SCT036 BKN054 03/03 Q1021

EXPIRED METARs :
  • 270130Z AUTO 31002KT 0450 0350 R18/1400U R36/0400N FG SCT005 SCT030 BKN049 04/03 Q1021
  • 270100Z AUTO VRB01KT 2400 1000 R18/3000D R36/3700U BR BKN047 BKN058 BKN078 04/03 Q1021
  • 270030Z AUTO VRB02KT 2400 1400 R18/3700D R36/2800D BR BKN047 OVC054 05/04 Q1021
  • 270000Z AUTO VRB02KT 3200 -RA BR FEW040 BKN046 OVC052 05/04 Q1021
  • 262330Z AUTO VRB02KT 3200 BR FEW010 BKN037 BKN047 05/04 Q1021

TAF TAF LFLB
Valid from the 26 at 18:00 until the 27 at 18:00 UTC


261700Z 2618/2718 18005KT 9999 BKN050
TEMPO 2618/2624 4000 -SHRA FEW030TCU BKN035
BECMG 2700/2702 CAVOK
PROB40
TEMPO 2702/2706 3000 BR
BECMG 2715/2718 OVC080



MET'MAP, your aeronautical weather chart ! - Copyright ORBIFLY December 2007 - Disclaimer

ORBIFLY MET'MAP TEAM :

Programming & Development : Alexandra Zaïnal
Concept & original design : Baudouin d'Aumeries
Assistance for programming : Marc-Olivier Méhu
Technical & hardware support : Manuel Goepfert

Contact : metmap@orbifly.com




SOURCES & CREDITS :

   NOAA